Main page
METAR-TAF:

METAR-TAF

Airports :

Ghanzi, Botswana

Ghanzi Airport

latitude: 21-42S, longitude: 021-39E, elevation: 1131 m

METAR: missing

Time: 09:43 (07:43 UTC)

Forecast

The report was made 19 hours and 43 minutes ago, at 12:00 UTC
Forecast valid from 22 at 15 UTC to 22 at 24 UTC
Wind 5 kt from the Southeast
Visibility 10 km or more
no clouds below 1500 m and no cumulonimbus

TAF: FBGZ 221200Z 2215/2224 14005KT CAVOK

Weather observations and forecasts of more than 4000 airports (METAR and TAF reports).

The available stations are represented by yellow and red dots on the map.

Hover mouse over dot to see the name of the station.

Then click to see weather observations and forecasts.

To change the map : click on the green buttons with a black cross to zoom in, on the green button with a dash to zoom out, or on the green arrows for adjacent maps.


METAR-TAF: